Time;durP1;ratioP1;P1;durP2;ratioP2;P2;SDS_P1;SDS_P2;PMS_P1;PMS_P2;Temp;Humidity;BMP_temperature;BMP_pressure;BME280_temperature;BME280_humidity;BME280_pressure;Samples;Min_cycle;Max_cycle;Signal;HPM_P1;HPM_P2
2021/07/30 00:00:44;;;;;;;6.15;5.28;;;;;;;;;;2090707;28;20176;-55
2021/07/30 00:01:44;;;;;;;6.63;5.38;;;;;;;;;;2088928;28;20795;-51
2021/07/30 00:02:44;;;;;;;9.70;5.53;;;;;;;;;;2088751;28;20649;-56
2021/07/30 00:03:44;;;;;;;12.43;5.82;;;;;;;;;;2081939;28;20266;-52
2021/07/30 00:04:45;;;;;;;10.75;6.15;;;;;;;;;;2084628;28;20237;-55
2021/07/30 00:05:48;;;;;;;8.88;5.65;;;;;;;;;;2089731;28;20228;-55
2021/07/30 00:06:48;;;;;;;7.97;6.20;;;;;;;;;;2082940;28;20190;-53
2021/07/30 00:07:49;;;;;;;10.80;5.82;;;;;;;;;;2089534;28;20538;-52
2021/07/30 00:08:49;;;;;;;9.25;6.00;;;;;;;;;;2081935;28;20169;-54
2021/07/30 00:09:49;;;;;;;9.90;5.65;;;;;;;;;;2081949;28;20172;-54
2021/07/30 00:10:52;;;;;;;9.32;5.78;;;;;;;;;;2082501;28;20251;-53
2021/07/30 00:11:52;;;;;;;8.88;5.57;;;;;;;;;;2082592;28;20210;-56
2021/07/30 00:12:55;;;;;;;6.63;5.75;;;;;;;;;;2084176;28;20175;-52
2021/07/30 00:13:56;;;;;;;8.55;5.35;;;;;;;;;;2089072;28;20160;-56
2021/07/30 00:14:56;;;;;;;10.48;6.05;;;;;;;;;;2083796;28;20562;-51
2021/07/30 00:15:57;;;;;;;10.73;5.97;;;;;;;;;;2088087;28;20198;-55
2021/07/30 00:16:57;;;;;;;7.88;5.55;;;;;;;;;;2084889;28;20258;-53
2021/07/30 00:17:57;;;;;;;6.45;5.50;;;;;;;;;;2089003;28;20720;-53
2021/07/30 00:18:57;;;;;;;10.88;5.75;;;;;;;;;;2085244;28;20164;-53
2021/07/30 00:19:58;;;;;;;10.48;6.22;;;;;;;;;;2087373;28;20200;-55
2021/07/30 00:20:58;;;;;;;13.80;6.18;;;;;;;;;;2086564;28;20704;-55
2021/07/30 00:21:58;;;;;;;9.95;5.68;;;;;;;;;;2082061;28;20307;-54
2021/07/30 00:22:58;;;;;;;7.72;5.38;;;;;;;;;;2084300;28;20192;-51
2021/07/30 00:23:59;;;;;;;10.80;5.93;;;;;;;;;;2083933;28;20208;-54
2021/07/30 00:24:59;;;;;;;7.45;5.78;;;;;;;;;;2089505;28;20682;-51
2021/07/30 00:26:02;;;;;;;7.68;5.60;;;;;;;;;;2088698;28;20246;-51
2021/07/30 00:27:03;;;;;;;15.13;6.15;;;;;;;;;;2088142;28;20518;-54
2021/07/30 00:28:03;;;;;;;7.53;5.85;;;;;;;;;;2087324;28;20214;-51
2021/07/30 00:29:04;;;;;;;9.32;5.63;;;;;;;;;;2087182;28;20246;-52
2021/07/30 00:30:04;;;;;;;6.80;5.80;;;;;;;;;;2090107;28;20511;-46
2021/07/30 00:31:04;;;;;;;7.95;6.13;;;;;;;;;;2082930;28;20203;-51
2021/07/30 00:32:06;;;;;;;8.90;5.78;;;;;;;;;;2084469;28;20236;-51
2021/07/30 00:33:06;;;;;;;7.00;5.85;;;;;;;;;;2084609;28;20258;-54
2021/07/30 00:34:06;;;;;;;7.43;5.93;;;;;;;;;;2087332;28;20172;-51
2021/07/30 00:35:07;;;;;;;7.97;5.68;;;;;;;;;;2090509;28;20203;-48
2021/07/30 00:36:07;;;;;;;14.02;5.97;;;;;;;;;;2087775;28;20237;-54
2021/07/30 00:37:08;;;;;;;8.15;6.13;;;;;;;;;;2086564;28;20214;-50
2021/07/30 00:38:08;;;;;;;10.68;6.20;;;;;;;;;;2089382;28;20176;-47
2021/07/30 00:39:08;;;;;;;7.35;5.97;;;;;;;;;;2085944;28;20662;-53
2021/07/30 00:40:10;;;;;;;13.85;6.43;;;;;;;;;;2087998;28;20699;-52
2021/07/30 00:41:10;;;;;;;9.30;6.18;;;;;;;;;;2081670;28;20196;-53
2021/07/30 00:42:10;;;;;;;11.27;6.40;;;;;;;;;;2083857;28;20187;-53
2021/07/30 00:43:11;;;;;;;7.05;5.90;;;;;;;;;;2086024;28;20168;-50
2021/07/30 00:44:11;;;;;;;10.18;6.05;;;;;;;;;;2085570;28;20195;-50
2021/07/30 00:45:11;;;;;;;9.57;6.18;;;;;;;;;;2090207;28;20523;-52
2021/07/30 00:46:13;;;;;;;7.43;5.70;;;;;;;;;;2089237;28;20179;-55
2021/07/30 00:47:13;;;;;;;6.75;5.47;;;;;;;;;;2086526;28;20217;-50
2021/07/30 00:48:15;;;;;;;11.27;6.30;;;;;;;;;;2082808;28;20647;-50
2021/07/30 00:49:16;;;;;;;8.32;6.15;;;;;;;;;;2086560;28;20175;-54
2021/07/30 00:50:17;;;;;;;11.27;6.05;;;;;;;;;;2090097;28;20176;-50
2021/07/30 00:51:18;;;;;;;11.07;6.00;;;;;;;;;;2089566;28;20229;-50
2021/07/30 00:52:18;;;;;;;9.13;6.32;;;;;;;;;;2087858;28;20168;-53
2021/07/30 00:53:18;;;;;;;10.05;6.32;;;;;;;;;;2085176;28;20195;-54
2021/07/30 00:54:19;;;;;;;10.95;6.60;;;;;;;;;;2087459;28;20597;-51
2021/07/30 00:55:19;;;;;;;8.68;6.32;;;;;;;;;;2085108;28;20175;-50
2021/07/30 00:56:20;;;;;;;12.00;6.30;;;;;;;;;;2087869;28;20179;-54
2021/07/30 00:57:21;;;;;;;8.82;5.65;;;;;;;;;;2084600;28;20545;-54
2021/07/30 00:58:21;;;;;;;9.20;5.93;;;;;;;;;;2087216;28;20171;-52
2021/07/30 00:59:22;;;;;;;9.95;6.13;;;;;;;;;;2085647;28;20180;-52
2021/07/30 01:00:22;;;;;;;17.85;6.45;;;;;;;;;;2089194;28;20183;-56
2021/07/30 01:01:23;;;;;;;10.32;6.10;;;;;;;;;;2082615;28;20211;-56
2021/07/30 01:02:23;;;;;;;9.70;6.15;;;;;;;;;;2087371;28;20167;-51
2021/07/30 01:03:23;;;;;;;10.88;6.10;;;;;;;;;;2084953;28;20275;-52
2021/07/30 01:04:24;;;;;;;9.93;6.40;;;;;;;;;;2087044;28;20203;-55
2021/07/30 01:05:25;;;;;;;6.68;5.72;;;;;;;;;;2087143;28;20202;-52
2021/07/30 01:06:25;;;;;;;8.48;5.55;;;;;;;;;;2084799;28;20184;-52
2021/07/30 01:07:26;;;;;;;10.10;6.15;;;;;;;;;;2088109;28;20180;-53
2021/07/30 01:08:26;;;;;;;8.52;5.80;;;;;;;;;;2082293;28;20178;-50
2021/07/30 01:09:26;;;;;;;12.13;6.70;;;;;;;;;;2081381;28;20168;-52
2021/07/30 01:10:26;;;;;;;9.25;6.90;;;;;;;;;;2086693;28;20282;-54
2021/07/30 01:11:27;;;;;;;10.02;6.80;;;;;;;;;;2084442;28;20200;-53
2021/07/30 01:12:27;;;;;;;8.52;6.47;;;;;;;;;;2083209;28;20184;-51
2021/07/30 01:13:27;;;;;;;9.60;6.22;;;;;;;;;;2082815;28;20556;-54
2021/07/30 01:14:40;;;;;;;9.90;6.53;;;;;;;;;;2088515;28;20207;-53
2021/07/30 01:15:40;;;;;;;10.07;6.55;;;;;;;;;;2084102;28;20184;-55
2021/07/30 01:16:40;;;;;;;8.40;6.63;;;;;;;;;;2089210;28;20175;-54
2021/07/30 01:17:40;;;;;;;11.07;6.97;;;;;;;;;;2087990;28;20218;-54
2021/07/30 01:18:41;;;;;;;10.65;6.38;;;;;;;;;;2086387;28;20182;-53
2021/07/30 01:19:41;;;;;;;9.35;6.18;;;;;;;;;;2088977;28;20183;-51
2021/07/30 01:20:42;;;;;;;10.90;6.85;;;;;;;;;;2089113;28;20176;-56
2021/07/30 01:21:45;;;;;;;8.60;6.70;;;;;;;;;;2087456;28;20171;-56
2021/07/30 01:22:49;;;;;;;8.13;6.97;;;;;;;;;;2087596;28;20617;-54
2021/07/30 01:23:50;;;;;;;8.68;6.53;;;;;;;;;;2088241;28;20184;-51
2021/07/30 01:24:51;;;;;;;9.10;7.22;;;;;;;;;;2082165;28;20222;-56
2021/07/30 01:25:51;;;;;;;9.32;7.38;;;;;;;;;;2086222;28;20655;-53
2021/07/30 01:26:52;;;;;;;9.30;6.93;;;;;;;;;;2085101;28;20176;-54
2021/07/30 01:27:52;;;;;;;9.82;7.47;;;;;;;;;;2088085;28;20179;-53
2021/07/30 01:28:52;;;;;;;8.88;6.82;;;;;;;;;;2081250;28;20251;-58
2021/07/30 01:29:53;;;;;;;8.57;6.40;;;;;;;;;;2087517;28;20171;-55
2021/07/30 01:30:53;;;;;;;8.55;6.18;;;;;;;;;;2082716;28;20168;-51
2021/07/30 01:31:53;;;;;;;11.95;7.53;;;;;;;;;;2088773;28;20179;-53
2021/07/30 01:32:54;;;;;;;11.30;6.47;;;;;;;;;;2083093;28;20231;-49
2021/07/30 01:33:54;;;;;;;10.55;6.90;;;;;;;;;;2083125;28;20190;-53
2021/07/30 01:34:54;;;;;;;9.98;6.78;;;;;;;;;;2088406;28;20208;-50
2021/07/30 01:35:54;;;;;;;9.32;6.75;;;;;;;;;;2089229;28;20182;-52
2021/07/30 01:36:54;;;;;;;7.65;6.40;;;;;;;;;;2087869;28;20566;-55
2021/07/30 01:37:55;;;;;;;9.30;6.97;;;;;;;;;;2082819;28;20223;-53
2021/07/30 01:38:55;;;;;;;9.40;6.45;;;;;;;;;;2090016;28;20254;-52
2021/07/30 01:39:55;;;;;;;9.63;7.10;;;;;;;;;;2088147;28;20190;-51
2021/07/30 01:41:08;;;;;;;11.88;7.25;;;;;;;;;;2083209;28;20174;-50
2021/07/30 01:42:09;;;;;;;8.73;6.78;;;;;;;;;;2083244;28;20152;-52
2021/07/30 01:43:09;;;;;;;9.20;7.20;;;;;;;;;;2088344;28;20259;-54
2021/07/30 01:44:11;;;;;;;9.63;7.47;;;;;;;;;;2085340;28;20354;-53
2021/07/30 01:45:12;;;;;;;11.68;6.80;;;;;;;;;;2084575;28;20271;-52
2021/07/30 01:46:12;;;;;;;9.02;6.60;;;;;;;;;;2081856;28;20183;-50
2021/07/30 01:47:13;;;;;;;8.82;7.50;;;;;;;;;;2084328;28;20172;-53
2021/07/30 01:48:13;;;;;;;8.57;6.70;;;;;;;;;;2085195;28;20179;-56
2021/07/30 01:49:14;;;;;;;10.10;8.15;;;;;;;;;;2085663;28;20535;-51
2021/07/30 01:50:14;;;;;;;8.02;7.22;;;;;;;;;;2087096;28;20194;-49
2021/07/30 01:51:14;;;;;;;7.78;6.97;;;;;;;;;;2085508;28;20624;-52
2021/07/30 01:52:15;;;;;;;11.52;7.18;;;;;;;;;;2083249;28;20586;-49
2021/07/30 01:53:15;;;;;;;14.13;7.68;;;;;;;;;;2084934;28;20195;-49
2021/07/30 01:54:15;;;;;;;8.82;7.55;;;;;;;;;;2084282;28;20233;-48
2021/07/30 01:55:15;;;;;;;10.00;6.95;;;;;;;;;;2084653;28;20197;-49
2021/07/30 01:56:16;;;;;;;10.98;7.15;;;;;;;;;;2089731;28;20182;-50
2021/07/30 01:57:16;;;;;;;7.13;6.38;;;;;;;;;;2084702;28;20180;-53
2021/07/30 01:58:16;;;;;;;8.73;6.50;;;;;;;;;;2082665;28;20653;-50
2021/07/30 01:59:17;;;;;;;9.38;7.10;;;;;;;;;;2085704;28;20186;-54
2021/07/30 02:00:17;;;;;;;9.07;6.53;;;;;;;;;;2084712;28;20485;-50
2021/07/30 02:01:17;;;;;;;10.20;7.22;;;;;;;;;;2085208;28;20167;-47
2021/07/30 02:02:18;;;;;;;11.20;7.53;;;;;;;;;;2084560;28;20678;-49
2021/07/30 02:03:18;;;;;;;9.05;7.10;;;;;;;;;;2084753;28;20648;-47
2021/07/30 02:04:18;;;;;;;9.13;7.47;;;;;;;;;;2088942;28;20199;-48
2021/07/30 02:05:18;;;;;;;9.90;6.55;;;;;;;;;;2085133;28;20176;-48
2021/07/30 02:06:19;;;;;;;8.52;6.45;;;;;;;;;;2082490;28;20180;-52
2021/07/30 02:07:19;;;;;;;10.50;6.90;;;;;;;;;;2080981;28;20172;-49
2021/07/30 02:08:19;;;;;;;11.73;6.90;;;;;;;;;;2085161;28;20176;-50
2021/07/30 02:09:19;;;;;;;9.73;6.50;;;;;;;;;;2085907;28;20581;-46
2021/07/30 02:10:20;;;;;;;10.75;7.07;;;;;;;;;;2083971;28;20182;-50
2021/07/30 02:11:20;;;;;;;12.07;7.28;;;;;;;;;;2083470;28;20171;-50
2021/07/30 02:12:20;;;;;;;10.60;6.53;;;;;;;;;;2084589;28;20238;-49
2021/07/30 02:14:39;;;;;;;9.38;6.40;;;;;;;;;;2088376;28;20203;-50
2021/07/30 02:16:48;;;;;;;8.73;6.53;;;;;;;;;;2106818;22;20326;-58
2021/07/30 02:17:49;;;;;;;10.05;6.50;;;;;;;;;;2083839;28;20207;-59
2021/07/30 02:18:49;;;;;;;8.10;7.10;;;;;;;;;;2087314;28;20323;-60
2021/07/30 02:19:50;;;;;;;11.55;6.93;;;;;;;;;;2080901;28;20160;-55
2021/07/30 02:20:50;;;;;;;9.38;6.45;;;;;;;;;;2085137;28;20211;-55
2021/07/30 02:21:51;;;;;;;10.63;6.68;;;;;;;;;;2080799;28;20172;-57
2021/07/30 02:22:51;;;;;;;7.47;6.18;;;;;;;;;;2086796;28;20894;-59
2021/07/30 02:23:52;;;;;;;12.70;7.18;;;;;;;;;;2081332;28;20180;-60
2021/07/30 02:24:52;;;;;;;10.25;6.75;;;;;;;;;;2087835;28;20179;-59
2021/07/30 02:25:52;;;;;;;9.07;6.75;;;;;;;;;;2081147;28;20191;-60
2021/07/30 02:26:55;;;;;;;9.00;6.78;;;;;;;;;;2082056;28;20200;-58
2021/07/30 02:27:55;;;;;;;8.82;6.53;;;;;;;;;;2088834;28;20156;-60
2021/07/30 02:28:56;;;;;;;7.00;5.90;;;;;;;;;;2089068;28;20212;-60
2021/07/30 02:29:56;;;;;;;11.68;6.55;;;;;;;;;;2088904;28;20282;-57
2021/07/30 02:30:56;;;;;;;9.88;6.88;;;;;;;;;;2088137;28;20195;-58
2021/07/30 02:31:57;;;;;;;7.95;6.55;;;;;;;;;;2088737;28;20199;-58
2021/07/30 02:32:57;;;;;;;13.52;7.00;;;;;;;;;;2088640;28;20172;-59
2021/07/30 02:33:58;;;;;;;10.25;6.35;;;;;;;;;;2088465;28;20222;-58
2021/07/30 02:34:58;;;;;;;10.57;7.13;;;;;;;;;;2090893;28;20172;-60
2021/07/30 02:35:58;;;;;;;8.20;6.35;;;;;;;;;;2091557;28;20203;-58
2021/07/30 02:36:58;;;;;;;8.95;6.80;;;;;;;;;;2091344;28;20179;-59
2021/07/30 02:37:58;;;;;;;11.45;6.85;;;;;;;;;;2084285;28;20251;-59
2021/07/30 02:38:59;;;;;;;9.25;7.35;;;;;;;;;;2089608;28;20187;-54
2021/07/30 02:39:59;;;;;;;8.40;6.70;;;;;;;;;;2089491;28;20175;-51
2021/07/30 02:40:59;;;;;;;7.40;6.57;;;;;;;;;;2087810;28;20168;-54
2021/07/30 02:42:00;;;;;;;10.32;6.63;;;;;;;;;;2088250;28;20190;-51
2021/07/30 02:43:00;;;;;;;8.38;6.20;;;;;;;;;;2086059;28;20172;-54
2021/07/30 02:44:01;;;;;;;7.82;6.57;;;;;;;;;;2082581;28;20233;-56
2021/07/30 02:45:01;;;;;;;10.15;6.97;;;;;;;;;;2082410;28;20203;-54
2021/07/30 02:46:02;;;;;;;14.20;7.00;;;;;;;;;;2087671;28;20246;-58
2021/07/30 02:47:02;;;;;;;7.22;6.53;;;;;;;;;;2088352;28;20171;-55
2021/07/30 02:48:02;;;;;;;7.97;6.43;;;;;;;;;;2089007;28;20168;-53
2021/07/30 02:49:02;;;;;;;14.70;6.95;;;;;;;;;;2088859;28;20557;-55
2021/07/30 02:50:03;;;;;;;8.20;6.47;;;;;;;;;;2088031;28;20197;-57
2021/07/30 02:51:03;;;;;;;8.18;6.55;;;;;;;;;;2079335;28;20172;-55
2021/07/30 02:52:04;;;;;;;10.50;6.82;;;;;;;;;;2085133;28;20179;-55
2021/07/30 02:53:04;;;;;;;9.10;6.80;;;;;;;;;;2088924;28;20278;-55
2021/07/30 02:54:04;;;;;;;10.27;7.03;;;;;;;;;;2088342;28;20183;-57
2021/07/30 02:55:05;;;;;;;11.88;7.10;;;;;;;;;;2089636;28;20676;-58
2021/07/30 02:56:06;;;;;;;8.93;6.70;;;;;;;;;;2086936;28;20214;-55
2021/07/30 02:57:06;;;;;;;8.13;6.75;;;;;;;;;;2089626;28;20203;-58
2021/07/30 02:58:07;;;;;;;6.60;6.00;;;;;;;;;;2088711;28;20171;-59
2021/07/30 02:59:07;;;;;;;8.00;6.50;;;;;;;;;;2089306;28;20646;-57
2021/07/30 03:00:07;;;;;;;7.30;6.45;;;;;;;;;;2088533;28;20528;-57
2021/07/30 03:01:08;;;;;;;10.18;7.00;;;;;;;;;;2088508;28;20289;-57
2021/07/30 03:02:08;;;;;;;10.05;6.53;;;;;;;;;;2089014;28;20175;-61
2021/07/30 03:03:08;;;;;;;11.43;6.65;;;;;;;;;;2089264;28;20203;-57
2021/07/30 03:04:08;;;;;;;8.93;7.30;;;;;;;;;;2088644;28;20273;-58
2021/07/30 03:05:09;;;;;;;9.43;7.07;;;;;;;;;;2087893;28;20255;-59
2021/07/30 03:06:09;;;;;;;11.75;7.68;;;;;;;;;;2087341;28;20206;-57
2021/07/30 03:07:10;;;;;;;10.98;7.32;;;;;;;;;;2087155;28;20206;-59
2021/07/30 03:08:10;;;;;;;11.98;6.80;;;;;;;;;;2085664;28;20215;-57
2021/07/30 03:09:10;;;;;;;10.27;6.97;;;;;;;;;;2088777;28;20184;-58
2021/07/30 03:10:10;;;;;;;7.93;6.82;;;;;;;;;;2088201;28;20190;-55
2021/07/30 03:11:11;;;;;;;10.07;6.60;;;;;;;;;;2088910;28;20184;-60
2021/07/30 03:12:11;;;;;;;11.63;6.72;;;;;;;;;;2088630;28;20191;-59
2021/07/30 03:13:11;;;;;;;8.73;6.45;;;;;;;;;;2088908;28;20584;-57
2021/07/30 03:14:11;;;;;;;10.98;7.35;;;;;;;;;;2088501;28;20617;-59
2021/07/30 03:15:12;;;;;;;12.95;7.57;;;;;;;;;;2088223;28;20175;-57
2021/07/30 03:16:13;;;;;;;8.02;7.22;;;;;;;;;;2086912;28;20207;-60
2021/07/30 03:17:13;;;;;;;9.48;6.30;;;;;;;;;;2086587;28;20669;-56
2021/07/30 03:18:14;;;;;;;8.95;7.72;;;;;;;;;;2087769;28;20171;-56
2021/07/30 03:19:14;;;;;;;11.90;6.75;;;;;;;;;;2089257;28;20172;-56
2021/07/30 03:20:14;;;;;;;10.45;7.32;;;;;;;;;;2089847;28;20214;-58
2021/07/30 03:21:14;;;;;;;9.65;7.15;;;;;;;;;;2090660;28;20214;-54
2021/07/30 03:22:14;;;;;;;10.95;7.50;;;;;;;;;;2086406;28;20578;-59
2021/07/30 03:23:15;;;;;;;9.07;7.30;;;;;;;;;;2089914;28;20175;-56
2021/07/30 03:24:15;;;;;;;11.55;7.05;;;;;;;;;;2090525;28;20276;-58
2021/07/30 03:25:15;;;;;;;9.68;7.07;;;;;;;;;;2089625;28;20182;-59
2021/07/30 03:26:16;;;;;;;8.40;7.55;;;;;;;;;;2089000;28;20203;-59
2021/07/30 03:27:16;;;;;;;8.77;6.97;;;;;;;;;;2090500;28;20259;-56
2021/07/30 03:28:16;;;;;;;8.93;6.78;;;;;;;;;;2091136;28;20249;-60
2021/07/30 03:29:16;;;;;;;9.05;7.28;;;;;;;;;;2090634;28;20160;-57
2021/07/30 03:30:17;;;;;;;13.32;7.70;;;;;;;;;;2091063;28;20164;-59
2021/07/30 03:31:17;;;;;;;9.90;7.40;;;;;;;;;;2088755;28;20689;-59
2021/07/30 03:32:18;;;;;;;9.80;7.20;;;;;;;;;;2090733;28;20311;-56
2021/07/30 03:33:18;;;;;;;10.57;7.72;;;;;;;;;;2090103;28;21148;-59
2021/07/30 03:34:18;;;;;;;8.07;7.20;;;;;;;;;;2090087;28;20175;-59
2021/07/30 03:35:19;;;;;;;13.07;7.55;;;;;;;;;;2090179;28;20257;-57
2021/07/30 03:36:19;;;;;;;10.23;7.45;;;;;;;;;;2087878;28;20278;-56
2021/07/30 03:37:19;;;;;;;11.85;7.85;;;;;;;;;;2089843;28;20513;-60
2021/07/30 03:38:19;;;;;;;8.43;7.60;;;;;;;;;;2089414;28;20830;-55
2021/07/30 03:39:20;;;;;;;9.50;7.35;;;;;;;;;;2090545;28;20172;-58
2021/07/30 03:40:20;;;;;;;8.93;8.00;;;;;;;;;;2091021;28;20191;-58
2021/07/30 03:41:20;;;;;;;9.18;8.20;;;;;;;;;;2089150;28;20180;-56
2021/07/30 03:42:20;;;;;;;9.55;7.63;;;;;;;;;;2088149;28;20551;-59
2021/07/30 03:43:21;;;;;;;12.25;7.43;;;;;;;;;;2087025;28;20589;-59
2021/07/30 03:44:21;;;;;;;11.40;8.13;;;;;;;;;;2089795;28;20192;-60
2021/07/30 03:45:22;;;;;;;11.07;7.60;;;;;;;;;;2090051;28;20180;-59
2021/07/30 03:46:22;;;;;;;9.05;8.10;;;;;;;;;;2087285;28;20194;-58
2021/07/30 03:47:22;;;;;;;13.18;7.65;;;;;;;;;;2087421;28;20172;-56
2021/07/30 03:48:22;;;;;;;9.93;8.00;;;;;;;;;;2091009;28;20174;-59
2021/07/30 03:49:23;;;;;;;14.10;8.38;;;;;;;;;;2090208;28;20809;-58
2021/07/30 03:50:23;;;;;;;8.55;7.65;;;;;;;;;;2086943;28;20188;-58
2021/07/30 03:51:23;;;;;;;9.95;8.48;;;;;;;;;;2088343;28;20529;-57
2021/07/30 03:52:23;;;;;;;12.98;8.13;;;;;;;;;;2090497;28;20160;-59
2021/07/30 03:53:24;;;;;;;13.38;8.60;;;;;;;;;;2090528;28;20164;-56
2021/07/30 03:54:24;;;;;;;12.13;8.13;;;;;;;;;;2090995;28;20628;-53
2021/07/30 03:55:24;;;;;;;9.50;8.25;;;;;;;;;;2086401;28;20172;-56
2021/07/30 03:56:24;;;;;;;12.05;8.60;;;;;;;;;;2081445;28;20207;-56
2021/07/30 03:57:24;;;;;;;11.90;8.65;;;;;;;;;;2086946;28;20222;-57
2021/07/30 03:58:25;;;;;;;11.10;7.60;;;;;;;;;;2086482;28;20203;-53
2021/07/30 03:59:25;;;;;;;9.90;7.47;;;;;;;;;;2086554;28;20179;-56
2021/07/30 04:00:25;;;;;;;13.38;8.05;;;;;;;;;;2094863;28;20199;-56
2021/07/30 04:01:25;;;;;;;13.13;8.75;;;;;;;;;;2083706;28;20168;-58
2021/07/30 04:02:26;;;;;;;14.05;8.65;;;;;;;;;;2089546;28;20179;-61
2021/07/30 04:03:26;;;;;;;9.32;7.68;;;;;;;;;;2086614;28;20224;-59
2021/07/30 04:04:26;;;;;;;11.77;8.10;;;;;;;;;;2087264;28;20282;-59
2021/07/30 04:05:26;;;;;;;14.32;7.65;;;;;;;;;;2085696;28;20176;-57
2021/07/30 04:06:27;;;;;;;14.77;8.18;;;;;;;;;;2084012;28;20200;-58
2021/07/30 04:07:27;;;;;;;13.18;8.43;;;;;;;;;;2089648;28;20537;-58
2021/07/30 04:08:27;;;;;;;13.20;8.90;;;;;;;;;;2088780;28;20172;-57
2021/07/30 04:09:28;;;;;;;10.50;8.68;;;;;;;;;;2088528;28;20262;-59
2021/07/30 04:10:29;;;;;;;13.48;8.45;;;;;;;;;;2089600;28;20171;-59
2021/07/30 04:11:29;;;;;;;11.57;8.07;;;;;;;;;;2091834;28;20214;-56
2021/07/30 04:12:29;;;;;;;8.93;8.13;;;;;;;;;;2091246;28;20172;-59
2021/07/30 04:13:30;;;;;;;12.20;8.07;;;;;;;;;;2088989;28;20841;-59
2021/07/30 04:14:30;;;;;;;11.43;7.88;;;;;;;;;;2088647;28;20212;-57
2021/07/30 04:15:31;;;;;;;12.27;8.23;;;;;;;;;;2089863;28;20703;-58
2021/07/30 04:16:35;;;;;;;14.50;7.78;;;;;;;;;;2087529;28;20304;-60
2021/07/30 04:17:35;;;;;;;10.82;8.23;;;;;;;;;;2090201;28;20263;-58
2021/07/30 04:18:35;;;;;;;10.98;8.02;;;;;;;;;;2089362;28;20175;-56
2021/07/30 04:19:35;;;;;;;9.80;7.85;;;;;;;;;;2090098;28;20541;-57
2021/07/30 04:20:39;;;;;;;11.55;8.07;;;;;;;;;;2090200;28;20184;-59
2021/07/30 04:21:39;;;;;;;14.18;8.90;;;;;;;;;;2088517;28;20171;-60
2021/07/30 04:22:40;;;;;;;9.27;8.30;;;;;;;;;;2089950;28;20181;-60
2021/07/30 04:23:40;;;;;;;19.02;9.02;;;;;;;;;;2084645;28;20715;-59
2021/07/30 04:24:40;;;;;;;13.10;8.95;;;;;;;;;;2088630;28;20206;-58
2021/07/30 04:25:41;;;;;;;10.85;8.05;;;;;;;;;;2088432;28;20818;-59
2021/07/30 04:26:41;;;;;;;12.45;7.72;;;;;;;;;;2088690;28;20571;-58
2021/07/30 04:27:41;;;;;;;14.80;7.88;;;;;;;;;;2086891;28;20206;-60
2021/07/30 04:28:42;;;;;;;9.73;8.05;;;;;;;;;;2087004;28;20204;-60
2021/07/30 04:29:42;;;;;;;13.52;7.78;;;;;;;;;;2089380;28;20163;-56
2021/07/30 04:30:42;;;;;;;11.65;7.00;;;;;;;;;;2085912;28;20180;-59
2021/07/30 04:31:42;;;;;;;13.32;7.38;;;;;;;;;;2085174;28;20176;-55
2021/07/30 04:32:43;;;;;;;9.25;7.28;;;;;;;;;;2088975;28;20217;-59
2021/07/30 04:33:43;;;;;;;9.38;7.05;;;;;;;;;;2086501;28;20188;-57
2021/07/30 04:34:43;;;;;;;11.40;7.63;;;;;;;;;;2089202;28;20214;-58
2021/07/30 04:35:44;;;;;;;9.40;7.38;;;;;;;;;;2083661;28;20991;-59
2021/07/30 04:36:44;;;;;;;9.32;7.10;;;;;;;;;;2085704;28;20202;-59
2021/07/30 04:37:44;;;;;;;8.38;6.82;;;;;;;;;;2081787;28;20820;-57
2021/07/30 04:38:45;;;;;;;9.75;6.78;;;;;;;;;;2089101;28;20199;-58
2021/07/30 04:39:45;;;;;;;10.25;7.47;;;;;;;;;;2089650;28;20176;-57
2021/07/30 04:40:45;;;;;;;12.32;7.22;;;;;;;;;;2088142;28;20203;-59
2021/07/30 04:41:45;;;;;;;12.60;7.53;;;;;;;;;;2082962;28;20585;-59
2021/07/30 04:42:46;;;;;;;9.55;6.65;;;;;;;;;;2090148;28;20262;-59
2021/07/30 04:43:46;;;;;;;9.25;6.85;;;;;;;;;;2089084;28;20214;-59
2021/07/30 04:44:46;;;;;;;9.30;6.43;;;;;;;;;;2088893;28;20214;-59
2021/07/30 04:45:46;;;;;;;9.88;7.03;;;;;;;;;;2090593;28;20212;-60
2021/07/30 04:46:47;;;;;;;12.23;7.38;;;;;;;;;;2085485;28;20192;-59
2021/07/30 04:47:47;;;;;;;10.93;6.43;;;;;;;;;;2090066;28;20241;-57
2021/07/30 04:48:47;;;;;;;7.45;6.28;;;;;;;;;;2086960;28;20251;-57
2021/07/30 04:49:48;;;;;;;11.02;7.47;;;;;;;;;;2090185;28;20176;-54
2021/07/30 04:50:48;;;;;;;10.25;6.90;;;;;;;;;;2089639;28;20179;-58
2021/07/30 04:51:48;;;;;;;8.07;6.05;;;;;;;;;;2090076;28;20175;-59
2021/07/30 04:52:52;;;;;;;12.20;6.43;;;;;;;;;;2085525;28;20248;-58
2021/07/30 04:53:52;;;;;;;11.75;7.00;;;;;;;;;;2087597;28;20179;-57
2021/07/30 04:54:53;;;;;;;12.32;7.50;;;;;;;;;;2084832;28;20267;-59
2021/07/30 04:55:53;;;;;;;9.40;6.90;;;;;;;;;;2089295;28;20175;-57
2021/07/30 04:56:53;;;;;;;11.95;7.25;;;;;;;;;;2081725;28;20181;-59
2021/07/30 04:57:53;;;;;;;12.07;6.90;;;;;;;;;;2085333;28;20257;-59
2021/07/30 04:58:54;;;;;;;11.95;6.32;;;;;;;;;;2090252;28;20255;-57
2021/07/30 04:59:54;;;;;;;10.93;6.90;;;;;;;;;;2089227;28;20176;-59
2021/07/30 05:00:54;;;;;;;9.57;6.93;;;;;;;;;;2089777;28;20183;-59
2021/07/30 05:01:54;;;;;;;7.35;5.78;;;;;;;;;;2089452;28;20182;-59
2021/07/30 05:02:55;;;;;;;8.70;7.07;;;;;;;;;;2090187;28;20182;-58
2021/07/30 05:03:57;;;;;;;11.20;6.53;;;;;;;;;;2089659;28;20167;-59
2021/07/30 05:04:57;;;;;;;15.63;7.10;;;;;;;;;;2088028;28;20744;-59
2021/07/30 05:05:58;;;;;;;8.27;6.72;;;;;;;;;;2086121;28;20179;-59
2021/07/30 05:06:58;;;;;;;10.07;7.60;;;;;;;;;;2085823;28;20167;-61
2021/07/30 05:07:58;;;;;;;10.23;7.13;;;;;;;;;;2085654;28;20190;-58
2021/07/30 05:08:58;;;;;;;8.73;6.45;;;;;;;;;;2089778;28;20167;-58
2021/07/30 05:09:59;;;;;;;11.90;6.63;;;;;;;;;;2087533;28;20173;-57
2021/07/30 05:10:59;;;;;;;9.70;6.90;;;;;;;;;;2088624;28;20156;-59
2021/07/30 05:11:59;;;;;;;8.70;6.72;;;;;;;;;;2088897;28;20246;-60
2021/07/30 05:12:59;;;;;;;9.70;6.43;;;;;;;;;;2086616;28;20278;-56
2021/07/30 05:14:00;;;;;;;6.95;6.13;;;;;;;;;;2086438;28;20179;-55
2021/07/30 05:15:00;;;;;;;9.88;6.80;;;;;;;;;;2086546;28;20555;-57
2021/07/30 05:16:04;;;;;;;8.77;6.97;;;;;;;;;;2084607;28;20189;-59
2021/07/30 05:17:04;;;;;;;9.05;6.90;;;;;;;;;;2089246;28;20191;-57
2021/07/30 05:18:04;;;;;;;10.02;6.70;;;;;;;;;;2083880;28;20199;-59
2021/07/30 05:19:04;;;;;;;7.85;6.20;;;;;;;;;;2082695;28;20177;-60
2021/07/30 05:20:05;;;;;;;8.15;6.45;;;;;;;;;;2086807;28;20171;-60
2021/07/30 05:21:06;;;;;;;9.13;6.38;;;;;;;;;;2084864;28;20173;-57
2021/07/30 05:22:06;;;;;;;10.60;6.93;;;;;;;;;;2086303;28;20179;-58
2021/07/30 05:23:07;;;;;;;10.80;6.35;;;;;;;;;;2088693;28;20238;-61
2021/07/30 05:24:07;;;;;;;8.40;6.82;;;;;;;;;;2085997;28;20207;-58
2021/07/30 05:25:11;;;;;;;11.95;6.43;;;;;;;;;;2086962;28;20179;-58
2021/07/30 05:26:11;;;;;;;8.85;6.22;;;;;;;;;;2089561;28;20201;-60
2021/07/30 05:27:12;;;;;;;9.60;6.20;;;;;;;;;;2085223;28;20174;-60
2021/07/30 05:28:12;;;;;;;7.68;6.25;;;;;;;;;;2089380;28;20168;-59
2021/07/30 05:29:12;;;;;;;6.43;5.82;;;;;;;;;;2087916;28;20183;-60
2021/07/30 05:30:12;;;;;;;7.10;5.63;;;;;;;;;;2086811;28;20753;-59
2021/07/30 05:31:17;;;;;;;7.47;5.55;;;;;;;;;;2086841;28;20649;-59
2021/07/30 05:32:17;;;;;;;7.28;5.90;;;;;;;;;;2085982;28;20619;-59
2021/07/30 05:33:17;;;;;;;9.90;6.25;;;;;;;;;;2089204;28;20202;-60
2021/07/30 05:34:17;;;;;;;8.52;6.22;;;;;;;;;;2089111;28;20180;-59
2021/07/30 05:35:18;;;;;;;6.63;5.75;;;;;;;;;;2089313;28;20175;-61
2021/07/30 05:36:19;;;;;;;12.38;6.38;;;;;;;;;;2084861;28;20258;-58
2021/07/30 05:37:20;;;;;;;8.18;6.38;;;;;;;;;;2086962;28;20186;-59
2021/07/30 05:38:21;;;;;;;8.82;6.13;;;;;;;;;;2089063;28;20171;-59
2021/07/30 05:39:21;;;;;;;12.57;6.55;;;;;;;;;;2087406;28;20179;-60
2021/07/30 05:40:21;;;;;;;6.75;5.60;;;;;;;;;;2089481;28;20174;-59
2021/07/30 05:41:22;;;;;;;6.78;6.00;;;;;;;;;;2089078;28;20193;-56
2021/07/30 05:42:23;;;;;;;7.30;6.10;;;;;;;;;;2088648;28;20175;-60
2021/07/30 05:43:23;;;;;;;10.05;6.00;;;;;;;;;;2089354;28;20640;-60
2021/07/30 05:44:23;;;;;;;5.95;5.35;;;;;;;;;;2089684;28;20250;-59
2021/07/30 05:45:23;;;;;;;10.90;5.80;;;;;;;;;;2084490;28;20172;-58
2021/07/30 05:46:24;;;;;;;7.93;5.85;;;;;;;;;;2086147;28;20194;-58
2021/07/30 05:47:24;;;;;;;11.18;5.43;;;;;;;;;;2088595;28;20196;-59
2021/07/30 05:48:25;;;;;;;8.70;5.28;;;;;;;;;;2086322;28;20187;-57
2021/07/30 05:49:25;;;;;;;6.82;6.13;;;;;;;;;;2089596;28;20214;-55
2021/07/30 05:50:25;;;;;;;8.68;5.75;;;;;;;;;;2088367;28;20217;-59
2021/07/30 05:51:25;;;;;;;6.78;6.00;;;;;;;;;;2088653;28;20700;-57
2021/07/30 05:52:26;;;;;;;8.32;5.90;;;;;;;;;;2090027;28;20829;-59
2021/07/30 05:53:26;;;;;;;9.07;5.88;;;;;;;;;;2093142;28;20632;-59
2021/07/30 05:54:26;;;;;;;9.80;5.63;;;;;;;;;;2093124;28;20182;-60
2021/07/30 05:55:27;;;;;;;10.00;6.10;;;;;;;;;;2091177;28;20258;-58
2021/07/30 05:56:27;;;;;;;6.93;5.20;;;;;;;;;;2092091;28;20650;-55
2021/07/30 05:57:31;;;;;;;8.32;5.80;;;;;;;;;;2088565;28;20686;-53
2021/07/30 05:58:32;;;;;;;8.93;5.45;;;;;;;;;;2086657;28;20580;-59
2021/07/30 05:59:32;;;;;;;8.85;5.88;;;;;;;;;;2087100;28;20180;-56
2021/07/30 06:00:32;;;;;;;14.80;6.38;;;;;;;;;;2087671;28;20182;-55
2021/07/30 06:01:32;;;;;;;8.80;6.00;;;;;;;;;;2088468;28;20195;-52
2021/07/30 06:02:33;;;;;;;9.40;5.00;;;;;;;;;;2089186;28;20171;-57
2021/07/30 06:03:33;;;;;;;11.32;5.47;;;;;;;;;;2082482;28;20187;-59